Time;durP1;ratioP1;P1;durP2;ratioP2;P2;SDS_P1;SDS_P2;PMS_P1;PMS_P2;Temp;Humidity;BMP_temperature;BMP_pressure;BME280_temperature;BME280_humidity;BME280_pressure;Samples;Min_cycle;Max_cycle;Signal;HPM_P1;HPM_P2
2022/09/23 00:00:35;;;;;;;14.27;11.63;;;9.20;99.90;;;;;;5020418;28;20039;-69
2022/09/23 00:03:01;;;;;;;16.08;12.30;;;9.20;99.90;;;;;;5047591;28;20680;-68
2022/09/23 00:05:28;;;;;;;12.65;10.35;;;9.20;99.90;;;;;;5042737;28;20037;-69
2022/09/23 00:07:55;;;;;;;11.90;10.80;;;9.20;99.90;;;;;;5044272;28;20045;-68
2022/09/23 00:10:22;;;;;;;11.80;10.27;;;9.10;99.90;;;;;;5036094;28;20048;-69
2022/09/23 00:12:48;;;;;;;11.52;9.95;;;9.10;99.90;;;;;;5008309;28;20048;-69
2022/09/23 00:15:14;;;;;;;15.30;10.55;;;9.10;99.90;;;;;;5027080;28;20120;-69
2022/09/23 00:17:41;;;;;;;13.35;11.00;;;9.10;99.90;;;;;;5007650;28;20033;-69
2022/09/23 00:20:10;;;;;;;14.32;10.60;;;9.10;99.90;;;;;;5026349;28;20087;-68
2022/09/23 00:22:37;;;;;;;14.30;9.95;;;9.10;99.90;;;;;;5026929;28;20394;-69
2022/09/23 00:25:04;;;;;;;13.63;10.55;;;9.10;99.90;;;;;;5009562;28;20045;-70
2022/09/23 00:27:30;;;;;;;12.82;9.93;;;9.10;99.90;;;;;;5018311;28;20041;-70
2022/09/23 00:29:56;;;;;;;13.40;10.35;;;9.20;99.90;;;;;;5042956;28;20091;-69
2022/09/23 00:32:22;;;;;;;12.73;10.20;;;9.20;99.90;;;;;;5044594;28;20052;-70
2022/09/23 00:34:48;;;;;;;14.25;9.80;;;9.20;99.90;;;;;;5046103;28;20037;-69
2022/09/23 00:37:15;;;;;;;14.32;9.18;;;9.20;99.90;;;;;;5012024;28;20063;-69
2022/09/23 00:39:41;;;;;;;9.52;8.45;;;9.20;99.90;;;;;;5026727;28;20057;-69
2022/09/23 00:42:15;;;;;;;14.82;10.73;;;9.20;99.90;;;;;;5027442;28;20520;-69
2022/09/23 00:44:48;;;;;;;12.05;9.68;;;9.20;99.90;;;;;;5027895;28;20128;-69
2022/09/23 00:47:31;;;;;;;11.07;9.40;;;9.20;99.90;;;;;;5024557;28;20051;-69
2022/09/23 00:50:09;;;;;;;;;;;9.20;99.90;;;;;;5030372;28;20124;-70
2022/09/23 00:52:36;;;;;;;9.57;8.43;;;9.20;99.90;;;;;;5026585;28;19990;-70
2022/09/23 00:55:06;;;;;;;10.90;8.82;;;9.20;99.90;;;;;;5028386;28;20037;-69
2022/09/23 00:57:33;;;;;;;11.45;9.20;;;9.20;99.90;;;;;;5028984;28;20033;-69
2022/09/23 01:00:00;;;;;;;10.00;8.98;;;9.20;99.90;;;;;;5044664;28;20116;-70
2022/09/23 01:02:27;;;;;;;10.85;8.73;;;9.20;99.90;;;;;;5023226;28;20048;-70
2022/09/23 01:04:53;;;;;;;10.63;9.40;;;9.20;99.90;;;;;;5026552;28;20054;-69
2022/09/23 01:07:20;;;;;;;11.02;9.13;;;9.20;99.90;;;;;;5021273;28;20041;-69
2022/09/23 01:09:47;;;;;;;10.23;8.70;;;9.20;99.90;;;;;;5027328;28;20142;-70
2022/09/23 01:12:22;;;;;;;12.20;9.50;;;9.20;99.90;;;;;;5043789;28;20129;-70
2022/09/23 01:15:11;;;;;;;10.75;8.88;;;9.20;99.90;;;;;;5043934;28;20037;-69
2022/09/23 01:17:43;;;;;;;10.10;9.10;;;9.20;99.90;;;;;;5024549;28;20037;-70
2022/09/23 01:20:37;;;;;;;11.48;9.98;;;9.20;99.90;;;;;;5025442;28;20040;-70
2022/09/23 01:23:11;;;;;;;11.75;10.00;;;9.20;99.90;;;;;;5043067;28;20084;-70
2022/09/23 01:25:46;;;;;;;11.48;10.27;;;9.20;99.90;;;;;;5045384;28;20044;-69
2022/09/23 01:28:34;;;;;;;11.82;9.02;;;9.10;99.90;;;;;;5030842;28;20131;-69
2022/09/23 01:31:28;;;;;;;13.45;9.10;;;9.10;99.90;;;;;;5026485;28;20059;-70
2022/09/23 01:34:09;;;;;;;11.30;9.65;;;9.10;99.90;;;;;;5026232;28;20049;-70
2022/09/23 01:36:46;;;;;;;11.68;9.30;;;9.10;99.90;;;;;;5043236;28;20213;-70
2022/09/23 01:39:34;;;;;;;12.48;9.45;;;9.10;99.90;;;;;;5044327;28;20048;-70
2022/09/23 01:42:24;;;;;;;12.98;9.63;;;9.00;99.90;;;;;;5025019;28;20059;-69
2022/09/23 01:44:55;;;;;;;11.80;9.63;;;9.00;99.90;;;;;;5020624;28;20235;-69
2022/09/23 01:47:30;;;;;;;11.30;10.18;;;9.10;99.90;;;;;;5019579;28;20386;-69
2022/09/23 01:50:02;;;;;;;12.90;10.27;;;9.00;99.90;;;;;;5010862;28;20527;-69
2022/09/23 01:52:47;;;;;;;11.48;10.27;;;9.00;99.90;;;;;;5029216;28;20073;-69
2022/09/23 01:55:36;;;;;;;14.43;9.98;;;9.00;99.90;;;;;;5018383;28;20137;-70
2022/09/23 01:58:15;;;;;;;13.05;10.32;;;9.00;99.90;;;;;;5041177;28;20394;-70
2022/09/23 02:00:54;;;;;;;11.98;10.65;;;8.90;99.90;;;;;;5024689;28;20041;-70
2022/09/23 02:03:42;;;;;;;11.32;10.13;;;8.90;99.90;;;;;;5029390;28;20041;-70
2022/09/23 02:06:25;;;;;;;17.50;11.00;;;8.90;99.90;;;;;;5041111;28;20179;-71
2022/09/23 02:09:00;;;;;;;13.23;9.85;;;8.90;99.90;;;;;;5044576;28;20037;-71
2022/09/23 02:11:27;;;;;;;11.60;9.85;;;8.90;99.90;;;;;;5038085;28;20068;-71
2022/09/23 02:14:10;;;;;;;11.57;10.02;;;8.90;99.90;;;;;;5006766;28;20048;-71
2022/09/23 02:16:42;;;;;;;11.45;9.77;;;8.80;99.90;;;;;;5026584;28;21230;-71
2022/09/23 02:19:53;;;;;;;10.83;9.73;;;8.80;99.90;;;;;;5024116;28;20048;-71
2022/09/23 02:22:27;;;;;;;15.00;10.35;;;8.80;99.90;;;;;;5043307;28;20472;-70
2022/09/23 02:24:55;;;;;;;11.75;9.40;;;8.80;99.90;;;;;;5022367;28;20053;-71
2022/09/23 02:27:27;;;;;;;10.55;9.48;;;8.80;99.90;;;;;;5019849;28;20052;-70
2022/09/23 02:30:17;;;;;;;13.32;10.40;;;8.70;99.90;;;;;;5025047;28;20044;-71
2022/09/23 02:33:33;;;;;;;11.32;10.13;;;8.80;99.90;;;;;;5025645;28;20052;-71
2022/09/23 02:36:31;;;;;;;15.27;10.95;;;8.70;99.90;;;;;;5026217;28;20098;-71
2022/09/23 02:39:02;;;;;;;11.32;10.13;;;8.70;99.90;;;;;;5023297;28;20057;-71
2022/09/23 02:41:54;;;;;;;13.45;11.07;;;8.70;99.90;;;;;;5025972;28;20038;-71
2022/09/23 02:44:21;;;;;;;13.60;10.80;;;8.70;99.90;;;;;;5026126;28;20056;-71
2022/09/23 02:46:51;;;;;;;11.52;10.18;;;8.70;99.90;;;;;;4992264;28;20057;-71
2022/09/23 02:49:25;;;;;;;13.73;10.27;;;8.60;99.90;;;;;;5024412;28;20033;-71
2022/09/23 02:51:53;;;;;;;11.45;10.30;;;8.60;99.90;;;;;;5024126;28;20045;-71
2022/09/23 02:54:22;;;;;;;11.88;9.73;;;8.60;99.90;;;;;;5020225;28;20041;-70
2022/09/23 02:56:48;;;;;;;12.07;10.60;;;8.60;99.90;;;;;;5022462;28;20057;-71
2022/09/23 02:59:18;;;;;;;12.93;10.60;;;8.50;99.90;;;;;;5026205;28;20504;-71
2022/09/23 03:02:03;;;;;;;14.93;10.70;;;8.50;99.90;;;;;;5020550;28;20124;-72
2022/09/23 03:05:08;;;;;;;12.20;10.90;;;8.50;99.90;;;;;;5025047;28;20074;-71
2022/09/23 03:07:43;;;;;;;14.30;10.20;;;8.50;99.90;;;;;;5010626;28;20040;-72
2022/09/23 03:10:30;;;;;;;12.32;10.80;;;8.50;99.90;;;;;;5021635;28;20063;-71
2022/09/23 03:13:27;;;;;;;13.02;10.40;;;8.40;99.90;;;;;;5021949;28;20064;-71
2022/09/23 03:16:29;;;;;;;11.48;10.07;;;8.40;99.90;;;;;;5022720;28;20988;-71
2022/09/23 03:19:27;;;;;;;13.80;11.23;;;8.30;99.90;;;;;;5022361;28;20040;-72
2022/09/23 03:22:23;;;;;;;14.70;10.82;;;8.20;99.90;;;;;;5019279;28;20494;-71
2022/09/23 03:24:51;;;;;;;14.50;11.00;;;8.20;99.90;;;;;;5039826;28;20045;-70
2022/09/23 03:27:22;;;;;;;15.48;11.77;;;8.20;99.90;;;;;;5027461;28;20479;-70
2022/09/23 03:29:49;;;;;;;12.05;10.85;;;8.20;99.90;;;;;;5025211;28;20124;-71
2022/09/23 03:32:18;;;;;;;12.05;10.82;;;8.10;99.90;;;;;;5021721;28;20482;-70
2022/09/23 03:34:48;;;;;;;12.35;11.05;;;8.10;99.90;;;;;;5042736;28;20087;-70
2022/09/23 03:37:26;;;;;;;15.32;11.65;;;8.10;99.90;;;;;;5023462;28;20116;-71
2022/09/23 03:40:00;;;;;;;12.00;10.65;;;8.10;99.90;;;;;;5041457;28;20082;-71
2022/09/23 03:42:29;;;;;;;12.00;10.57;;;8.00;99.90;;;;;;5025773;28;20506;-70
2022/09/23 03:44:56;;;;;;;14.63;11.00;;;8.00;99.90;;;;;;5041891;28;20792;-70
2022/09/23 03:47:24;;;;;;;12.38;11.07;;;8.00;99.90;;;;;;5042166;28;21711;-70
2022/09/23 03:49:51;;;;;;;13.00;11.05;;;8.00;99.90;;;;;;5025115;28;20342;-71
2022/09/23 03:52:20;;;;;;;12.75;11.15;;;8.00;99.90;;;;;;5007705;28;20033;-71
2022/09/23 03:54:46;;;;;;;12.43;10.98;;;8.00;99.90;;;;;;5024744;28;20080;-71
2022/09/23 03:57:12;;;;;;;12.90;11.38;;;7.90;99.90;;;;;;5027676;28;21366;-71
2022/09/23 03:59:38;;;;;;;14.30;11.57;;;7.90;99.90;;;;;;5009379;28;20037;-71
2022/09/23 04:02:06;;;;;;;12.80;10.80;;;7.90;99.90;;;;;;5022648;28;20040;-71
2022/09/23 04:04:34;;;;;;;14.43;12.13;;;7.90;99.90;;;;;;5023234;28;20037;-71
2022/09/23 04:07:01;;;;;;;14.10;11.85;;;7.90;99.90;;;;;;5022794;28;20111;-70
2022/09/23 04:09:27;;;;;;;15.45;12.18;;;7.90;99.90;;;;;;5023647;28;20134;-70
2022/09/23 04:11:53;;;;;;;16.60;12.15;;;7.90;99.90;;;;;;5026253;28;20115;-71
2022/09/23 04:14:20;;;;;;;17.00;11.48;;;7.90;99.90;;;;;;5027129;28;20030;-70
2022/09/23 04:16:47;;;;;;;15.57;12.35;;;7.90;99.90;;;;;;5047073;28;20504;-71
2022/09/23 04:19:13;;;;;;;14.35;12.85;;;7.90;99.90;;;;;;5012592;28;20044;-70
2022/09/23 04:21:40;;;;;;;14.38;11.95;;;7.80;99.90;;;;;;5011582;28;20037;-70
2022/09/23 04:24:06;;;;;;;15.32;12.48;;;7.80;99.90;;;;;;5047654;28;20048;-70
2022/09/23 04:26:33;;;;;;;13.40;11.95;;;7.80;99.90;;;;;;4998878;28;20040;-70
2022/09/23 04:28:59;;;;;;;13.48;12.07;;;7.80;99.90;;;;;;5027543;28;20124;-70
2022/09/23 04:31:25;;;;;;;13.98;12.40;;;7.80;99.90;;;;;;5046432;28;20464;-71
2022/09/23 04:33:54;;;;;;;23.23;12.93;;;7.80;99.90;;;;;;5040771;28;20045;-71
2022/09/23 04:36:20;;;;;;;16.75;12.00;;;7.80;99.90;;;;;;5029783;28;20037;-70
2022/09/23 04:38:47;;;;;;;13.85;12.25;;;7.80;99.90;;;;;;5049077;28;20051;-71
2022/09/23 04:41:15;;;;;;;16.13;13.55;;;7.80;99.90;;;;;;5045291;28;20103;-71
2022/09/23 04:43:41;;;;;;;14.95;12.07;;;7.70;99.90;;;;;;5031132;28;20408;-71
2022/09/23 04:46:10;;;;;;;14.20;12.68;;;7.70;99.90;;;;;;5041014;28;20033;-71
2022/09/23 04:48:37;;;;;;;14.90;11.98;;;7.70;99.90;;;;;;5046142;28;20485;-71
2022/09/23 04:51:08;;;;;;;15.43;11.80;;;7.70;99.90;;;;;;5031949;28;20045;-71
2022/09/23 04:53:35;;;;;;;16.77;12.45;;;7.70;99.90;;;;;;5028233;28;20048;-71
2022/09/23 04:56:04;;;;;;;14.40;12.23;;;7.70;99.90;;;;;;5045232;28;20041;-70
2022/09/23 04:58:30;;;;;;;12.48;11.18;;;7.70;99.90;;;;;;5026046;28;20080;-71
2022/09/23 05:00:56;;;;;;;15.98;12.10;;;7.70;99.90;;;;;;5032262;28;20036;-71
2022/09/23 05:03:23;;;;;;;14.90;12.35;;;7.70;99.90;;;;;;5044248;28;20120;-71
2022/09/23 05:05:49;;;;;;;16.25;12.55;;;7.70;99.90;;;;;;5028484;28;20090;-71
2022/09/23 05:08:15;;;;;;;14.50;12.93;;;7.70;99.90;;;;;;5028290;28;20406;-71
2022/09/23 05:10:41;;;;;;;15.73;12.05;;;7.70;99.90;;;;;;5027327;28;20037;-71
2022/09/23 05:13:08;;;;;;;14.93;12.02;;;7.70;99.90;;;;;;5025737;28;20056;-71
2022/09/23 05:15:33;;;;;;;17.90;12.05;;;7.60;99.90;;;;;;5026306;28;20124;-71
2022/09/23 05:18:01;;;;;;;14.52;12.02;;;7.60;99.90;;;;;;5029113;28;20574;-71
2022/09/23 05:20:27;;;;;;;18.77;12.55;;;7.60;99.90;;;;;;5030249;28;20115;-70
2022/09/23 05:22:54;;;;;;;15.18;12.85;;;7.60;99.90;;;;;;5025259;28;20053;-71
2022/09/23 05:25:24;;;;;;;16.80;12.93;;;7.60;99.90;;;;;;5011894;28;20126;-70
2022/09/23 05:27:49;;;;;;;14.50;12.70;;;7.70;99.90;;;;;;5026458;28;20052;-71
2022/09/23 05:30:15;;;;;;;14.32;12.35;;;7.70;99.90;;;;;;5025953;28;20041;-70
2022/09/23 05:32:41;;;;;;;14.95;11.88;;;7.70;99.90;;;;;;5009688;28;20033;-71
2022/09/23 05:35:07;;;;;;;14.93;12.05;;;7.70;99.90;;;;;;5024037;28;20038;-71
2022/09/23 05:37:33;;;;;;;18.98;13.63;;;7.70;99.90;;;;;;5012877;28;20037;-71
2022/09/23 05:39:59;;;;;;;15.73;12.73;;;7.70;99.90;;;;;;5024839;28;20591;-71
2022/09/23 05:42:25;;;;;;;18.30;13.38;;;7.70;99.90;;;;;;5007931;28;20078;-71
2022/09/23 05:44:51;;;;;;;14.55;11.82;;;7.70;99.90;;;;;;5035761;28;20041;-71
2022/09/23 05:47:17;;;;;;;17.20;13.40;;;7.70;99.90;;;;;;5009308;28;20287;-71
2022/09/23 05:49:43;;;;;;;15.27;12.45;;;7.70;99.90;;;;;;5023990;28;20072;-71
2022/09/23 05:52:08;;;;;;;15.90;12.55;;;7.70;99.90;;;;;;5027708;28;20045;-71
2022/09/23 05:54:35;;;;;;;15.98;12.63;;;7.70;99.90;;;;;;5028227;28;20044;-71
2022/09/23 05:57:02;;;;;;;15.82;13.35;;;7.70;99.90;;;;;;5027917;28;20615;-71
2022/09/23 05:59:28;;;;;;;14.50;12.35;;;7.60;99.90;;;;;;5041948;28;20029;-71
2022/09/23 06:01:54;;;;;;;16.23;12.98;;;7.60;99.90;;;;;;5010190;28;20373;-71
2022/09/23 06:04:20;;;;;;;16.42;13.27;;;7.60;99.90;;;;;;5030411;28;20036;-71
2022/09/23 06:06:46;;;;;;;16.60;13.07;;;7.60;99.90;;;;;;5027812;28;20391;-71
2022/09/23 06:09:13;;;;;;;17.17;12.80;;;7.70;99.90;;;;;;5027988;28;20036;-71
2022/09/23 06:11:40;;;;;;;17.40;13.32;;;7.70;99.90;;;;;;5011994;28;20049;-70
2022/09/23 06:14:08;;;;;;;17.65;13.27;;;7.70;99.90;;;;;;5041643;28;20041;-70
2022/09/23 06:16:35;;;;;;;16.75;13.38;;;7.70;99.90;;;;;;5026798;28;20072;-70
2022/09/23 06:19:04;;;;;;;17.23;13.90;;;7.80;99.90;;;;;;5026884;28;20525;-71
2022/09/23 06:21:31;;;;;;;17.88;12.73;;;7.80;99.90;;;;;;5027871;28;20379;-70
2022/09/23 06:24:01;;;;;;;17.85;13.65;;;7.90;99.90;;;;;;5025759;28;20040;-71
2022/09/23 06:26:32;;;;;;;19.95;12.35;;;7.90;99.90;;;;;;5024212;28;20037;-70
2022/09/23 06:28:59;;;;;;;23.65;14.48;;;7.90;99.90;;;;;;5024235;28;20448;-71
2022/09/23 06:31:25;;;;;;;17.48;13.75;;;8.00;99.90;;;;;;5026822;28;20500;-71
2022/09/23 06:33:51;;;;;;;15.82;13.20;;;8.10;99.90;;;;;;5040569;28;20036;-71
2022/09/23 06:36:17;;;;;;;20.05;13.27;;;8.10;99.90;;;;;;5006718;28;20044;-71
2022/09/23 06:38:43;;;;;;;21.13;13.70;;;8.20;99.90;;;;;;5020332;28;20079;-70
2022/09/23 06:41:10;;;;;;;17.77;14.15;;;8.30;99.90;;;;;;5021476;28;20046;-71
2022/09/23 06:43:36;;;;;;;24.30;13.95;;;8.40;99.90;;;;;;5009234;28;20076;-71
2022/09/23 06:46:04;;;;;;;20.25;14.45;;;8.50;99.90;;;;;;5008010;28;20072;-71
2022/09/23 06:48:34;;;;;;;21.20;13.85;;;8.50;99.90;;;;;;5020064;28;20041;-70
2022/09/23 06:51:03;;;;;;;21.48;13.30;;;8.60;99.90;;;;;;5016345;28;20152;-71
2022/09/23 06:53:33;;;;;;;18.92;14.05;;;8.70;99.90;;;;;;5011979;28;20068;-71
2022/09/23 06:56:01;;;;;;;17.30;12.98;;;8.90;99.90;;;;;;5016198;28;20041;-71
2022/09/23 06:58:28;;;;;;;21.25;13.38;;;9.00;99.90;;;;;;5018040;28;20482;-71
2022/09/23 07:01:18;;;;;;;16.52;13.43;;;9.10;99.90;;;;;;5019073;28;20052;-71
2022/09/23 07:03:46;;;;;;;16.92;13.40;;;9.20;99.90;;;;;;5020166;28;20045;-71
2022/09/23 07:06:12;;;;;;;17.88;12.95;;;9.30;99.90;;;;;;5020909;28;20041;-71
2022/09/23 07:08:41;;;;;;;16.33;13.38;;;9.40;99.90;;;;;;5004797;28;20059;-71
2022/09/23 07:11:11;;;;;;;16.05;13.10;;;9.50;99.90;;;;;;5005274;28;20049;-71
2022/09/23 07:13:37;;;;;;;15.68;11.50;;;9.60;99.90;;;;;;5035485;28;20401;-70
2022/09/23 07:16:03;;;;;;;18.02;12.48;;;9.70;99.90;;;;;;5004235;28;20697;-71
2022/09/23 07:18:32;;;;;;;15.93;11.98;;;9.80;99.90;;;;;;5021227;28;20521;-71
2022/09/23 07:21:05;;;;;;;15.40;11.77;;;9.80;99.90;;;;;;5017574;28;20038;-71
2022/09/23 07:23:32;;;;;;;15.05;12.30;;;9.90;99.90;;;;;;5023436;28;20524;-72
2022/09/23 07:25:58;;;;;;;17.02;10.95;;;9.90;99.90;;;;;;5037258;28;20112;-73
2022/09/23 07:28:26;;;;;;;16.65;11.75;;;10.00;99.90;;;;;;5039607;28;20159;-72
2022/09/23 07:30:52;;;;;;;15.93;11.70;;;10.10;99.90;;;;;;5010085;28;20067;-71
2022/09/23 07:33:18;;;;;;;15.88;12.00;;;10.10;99.90;;;;;;5026899;28;20033;-72
2022/09/23 07:35:44;;;;;;;18.52;12.02;;;10.20;99.90;;;;;;5026743;28;20040;-72
2022/09/23 07:38:10;;;;;;;18.00;11.93;;;10.30;99.90;;;;;;5011458;28;20047;-72
2022/09/23 07:40:38;;;;;;;14.98;11.27;;;10.30;99.90;;;;;;5022784;28;20056;-72
2022/09/23 07:43:06;;;;;;;16.45;11.02;;;10.40;99.90;;;;;;5041181;28;20048;-72
2022/09/23 07:45:32;;;;;;;16.92;11.32;;;10.50;99.90;;;;;;5022515;28;20120;-72
2022/09/23 07:47:59;;;;;;;15.23;10.52;;;10.60;99.90;;;;;;5045748;28;20464;-72
2022/09/23 07:50:26;;;;;;;13.23;9.93;;;10.70;99.90;;;;;;5027255;28;20128;-73
2022/09/23 07:52:51;;;;;;;14.52;10.23;;;10.80;99.90;;;;;;5012383;28;20033;-72
2022/09/23 07:55:18;;;;;;;12.27;9.48;;;10.80;99.90;;;;;;5015501;28;20037;-71
2022/09/23 07:57:45;;;;;;;11.77;9.27;;;10.90;99.90;;;;;;5025904;28;20045;-70
2022/09/23 08:00:12;;;;;;;12.25;8.85;;;11.00;99.90;;;;;;5042737;28;20033;-71
2022/09/23 08:02:39;;;;;;;17.95;9.57;;;11.10;99.90;;;;;;5033181;28;20037;-71
2022/09/23 08:05:05;;;;;;;12.52;9.88;;;11.10;99.90;;;;;;5027523;28;20041;-72
2022/09/23 08:07:33;;;;;;;14.05;9.30;;;11.20;99.90;;;;;;5049527;28;20131;-71
2022/09/23 08:09:59;;;;;;;13.95;9.80;;;11.30;99.90;;;;;;5033710;28;20068;-72
2022/09/23 08:12:25;;;;;;;11.43;8.75;;;11.40;99.90;;;;;;4999580;28;20521;-72
2022/09/23 08:14:51;;;;;;;9.80;8.77;;;11.50;99.90;;;;;;5031881;28;20080;-70
2022/09/23 08:17:17;;;;;;;14.30;10.60;;;11.60;99.90;;;;;;5025582;28;20064;-71
2022/09/23 08:19:43;;;;;;;12.40;8.27;;;11.70;99.90;;;;;;5010803;28;20041;-71
2022/09/23 08:22:09;;;;;;;12.10;9.73;;;11.80;99.90;;;;;;4997730;28;20573;-70
2022/09/23 08:24:34;;;;;;;13.95;9.73;;;11.80;99.90;;;;;;5038604;28;20425;-72
2022/09/23 08:27:00;;;;;;;12.25;9.18;;;11.90;99.90;;;;;;5006818;28;20037;-72
2022/09/23 08:29:26;;;;;;;16.23;9.88;;;12.00;99.90;;;;;;5040539;28;20040;-71
2022/09/23 08:31:53;;;;;;;13.63;9.48;;;12.10;99.90;;;;;;5006003;28;20045;-71
2022/09/23 08:34:20;;;;;;;14.13;10.00;;;12.20;99.90;;;;;;5004766;28;20068;-70
2022/09/23 08:36:46;;;;;;;16.08;9.18;;;12.20;99.90;;;;;;5030971;28;20029;-70
2022/09/23 08:39:17;;;;;;;12.38;9.75;;;12.30;99.90;;;;;;5010978;28;20028;-72
2022/09/23 08:41:55;;;;;;;12.35;9.43;;;12.40;99.90;;;;;;4984825;28;1256296;-71
2022/09/23 08:44:25;;;;;;;11.57;8.98;;;12.40;99.90;;;;;;5042628;28;20072;-71
2022/09/23 08:47:28;;;;;;;12.00;9.45;;;12.50;99.90;;;;;;5022735;28;20049;-72
2022/09/23 08:49:57;;;;;;;;;;;12.60;99.90;;;;;;5020260;28;20171;-71
2022/09/23 08:52:27;;;;;;;12.30;9.27;;;12.70;99.90;;;;;;5034031;28;19928;-71
2022/09/23 08:54:53;;;;;;;11.88;8.88;;;12.70;99.90;;;;;;5033091;28;20496;-71
2022/09/23 08:57:37;;;;;;;13.43;9.15;;;12.80;99.90;;;;;;5039889;28;20033;-70
2022/09/23 09:00:04;;;;;;;14.73;9.90;;;12.80;99.90;;;;;;5025097;28;20126;-70
2022/09/23 09:02:33;;;;;;;13.05;8.85;;;12.80;99.90;;;;;;5028994;28;20064;-71
2022/09/23 09:05:04;;;;;;;13.50;9.05;;;12.90;99.90;;;;;;5017098;28;20102;-71
2022/09/23 09:07:34;;;;;;;13.15;8.95;;;13.00;99.90;;;;;;5030015;28;20048;-70
2022/09/23 09:10:21;;;;;;;11.13;8.95;;;13.10;99.90;;;;;;5032916;28;20101;-71
2022/09/23 09:12:52;;;;;;;16.48;9.75;;;13.10;99.90;;;;;;5031671;28;20079;-70
2022/09/23 09:15:21;;;;;;;11.05;8.95;;;13.10;99.90;;;;;;5048987;28;20485;-70
2022/09/23 09:18:11;;;;;;;15.68;9.32;;;13.20;99.90;;;;;;5023811;28;20033;-71
2022/09/23 09:21:10;;;;;;;12.98;9.32;;;13.30;99.90;;;;;;5024961;28;20137;-70
2022/09/23 09:23:52;;;;;;;11.77;8.80;;;13.40;99.90;;;;;;5030425;28;20561;-70
2022/09/23 09:26:24;;;;;;;15.60;9.03;;;13.50;99.90;;;;;;4996021;28;20044;-71
2022/09/23 09:29:18;;;;;;;11.77;8.40;;;13.60;99.90;;;;;;5029798;28;20499;-71
2022/09/23 09:31:48;;;;;;;15.38;9.20;;;13.70;99.90;;;;;;5026332;28;20036;-71
2022/09/23 09:34:26;;;;;;;12.15;9.15;;;13.80;99.90;;;;;;5025356;28;20413;-71
2022/09/23 09:37:11;;;;;;;12.52;9.65;;;13.90;99.90;;;;;;5029474;28;20441;-71
2022/09/23 09:39:37;;;;;;;11.65;8.75;;;14.00;99.90;;;;;;5022867;28;20073;-71
2022/09/23 09:42:05;;;;;;;11.68;8.55;;;14.10;99.90;;;;;;5024993;28;20482;-71
2022/09/23 09:44:58;;;;;;;11.80;9.05;;;14.10;99.90;;;;;;5021884;28;20040;-71
2022/09/23 09:47:46;;;;;;;14.77;8.48;;;14.20;99.90;;;;;;5042327;28;20137;-70
2022/09/23 09:50:39;;;;;;;9.07;7.78;;;14.20;99.90;;;;;;5038164;28;20518;-70
2022/09/23 09:53:30;;;;;;;13.52;8.45;;;14.20;99.90;;;;;;5045392;28;20032;-71
2022/09/23 09:56:12;;;;;;;14.30;8.68;;;14.30;99.90;;;;;;5047519;28;20048;-69
2022/09/23 09:58:57;;;;;;;16.25;9.25;;;14.40;99.90;;;;;;5013616;28;20481;-71
2022/09/23 10:01:30;;;;;;;10.73;8.88;;;14.40;99.90;;;;;;5014746;28;20047;-71
2022/09/23 10:03:59;;;;;;;10.77;8.52;;;14.50;99.90;;;;;;5045854;28;20045;-70
2022/09/23 10:06:28;;;;;;;13.18;8.32;;;14.60;99.90;;;;;;5008683;28;20048;-70
2022/09/23 10:09:03;;;;;;;12.20;8.82;;;14.70;99.90;;;;;;5021170;28;20483;-70
2022/09/23 10:11:30;;;;;;;11.05;8.60;;;14.80;99.90;;;;;;5019286;28;20407;-71
2022/09/23 10:13:59;;;;;;;12.15;7.90;;;14.80;99.90;;;;;;5014125;28;20033;-71
2022/09/23 10:16:26;;;;;;;13.13;8.68;;;14.90;99.90;;;;;;5042745;28;20116;-71
2022/09/23 10:18:55;;;;;;;12.30;9.05;;;15.10;99.90;;;;;;5026102;28;20037;-71
2022/09/23 10:21:24;;;;;;;11.18;8.65;;;15.10;99.90;;;;;;5023772;28;20037;-71
2022/09/23 10:23:54;;;;;;;10.85;8.45;;;15.20;99.90;;;;;;5030478;28;20095;-71
2022/09/23 10:26:31;;;;;;;11.43;7.88;;;15.30;99.90;;;;;;5026959;28;20068;-71
2022/09/23 10:29:00;;;;;;;10.88;8.05;;;15.30;99.90;;;;;;5036430;28;20042;-71
2022/09/23 10:31:34;;;;;;;18.00;9.00;;;15.30;99.90;;;;;;5025216;28;20580;-71
2022/09/23 10:34:22;;;;;;;10.13;8.90;;;15.30;99.90;;;;;;5046632;28;20033;-71
2022/09/23 10:37:18;;;;;;;9.88;8.68;;;15.30;99.90;;;;;;5029922;28;20095;-71
2022/09/23 10:48:39;;;;;;;10.85;8.15;;;15.20;99.90;;;;;;5043535;28;20049;-71
2022/09/23 10:51:43;;;;;;;15.25;8.00;;;15.20;99.90;;;;;;5048254;28;20049;-71
2022/09/23 10:54:28;;;;;;;10.85;8.63;;;15.10;99.90;;;;;;5020943;28;20041;-71
2022/09/23 10:57:36;;;;;;;11.30;8.73;;;15.20;99.90;;;;;;5012386;28;20049;-71
2022/09/23 11:00:21;;;;;;;9.30;8.25;;;15.10;99.90;;;;;;5008621;28;20459;-71
2022/09/23 11:03:01;;;;;;;10.05;8.30;;;15.10;99.90;;;;;;5025954;28;20037;-71
2022/09/23 11:05:50;;;;;;;12.48;9.05;;;15.10;99.90;;;;;;5019002;28;20076;-71
2022/09/23 11:08:17;;;;;;;12.48;8.95;;;15.10;99.90;;;;;;5047188;28;20037;-71
2022/09/23 11:11:16;;;;;;;11.30;8.70;;;15.10;99.90;;;;;;5025103;28;20034;-71
2022/09/23 11:13:51;;;;;;;11.45;8.70;;;15.20;99.90;;;;;;5028114;28;20486;-71
2022/09/23 11:16:30;;;;;;;12.75;8.38;;;15.20;99.90;;;;;;5022369;28;20040;-71
2022/09/23 11:19:22;;;;;;;13.38;8.60;;;15.30;99.90;;;;;;5025481;28;20044;-71
2022/09/23 11:22:14;;;;;;;10.45;7.70;;;15.30;99.90;;;;;;4999928;28;20570;-71
2022/09/23 11:24:57;;;;;;;10.20;8.10;;;15.30;99.90;;;;;;5014646;28;20049;-71
2022/09/23 11:27:28;;;;;;;11.13;8.38;;;15.30;99.90;;;;;;5024950;28;20037;-71
2022/09/23 11:30:11;;;;;;;13.45;8.40;;;15.30;99.90;;;;;;5029329;28;20043;-71
2022/09/23 11:33:14;;;;;;;9.90;7.88;;;15.30;99.90;;;;;;5047160;28;20077;-71
2022/09/23 11:36:06;;;;;;;12.32;8.75;;;15.40;99.90;;;;;;5037623;28;20112;-71
2022/09/23 11:38:40;;;;;;;10.63;7.87;;;15.30;99.90;;;;;;5030488;28;20052;-71
2022/09/23 11:41:16;;;;;;;15.52;9.68;;;15.40;99.90;;;;;;4997217;28;20057;-71
2022/09/23 11:43:46;;;;;;;12.25;8.52;;;15.40;99.90;;;;;;5012127;28;20045;-71
2022/09/23 11:46:34;;;;;;;9.90;8.68;;;15.50;99.90;;;;;;5018264;28;20056;-71
2022/09/23 11:49:14;;;;;;;11.00;8.73;;;15.50;99.90;;;;;;5014749;28;20052;-71
2022/09/23 11:51:55;;;;;;;15.30;8.40;;;15.50;99.90;;;;;;5008334;28;20033;-71
2022/09/23 11:54:30;;;;;;;9.68;8.00;;;15.50;99.90;;;;;;5047607;28;20052;-71
2022/09/23 11:57:03;;;;;;;9.77;8.40;;;15.60;99.90;;;;;;5046574;28;20516;-71
2022/09/23 11:59:41;;;;;;;13.60;8.48;;;15.60;99.90;;;;;;5029902;28;20537;-71
2022/09/23 12:02:10;;;;;;;12.07;7.97;;;15.60;99.90;;;;;;5003240;28;20042;-71
2022/09/23 12:04:42;;;;;;;9.60;8.48;;;15.70;99.90;;;;;;5013182;28;20038;-71
2022/09/23 12:07:07;;;;;;;15.37;9.50;;;15.70;99.90;;;;;;5029870;28;20391;-71
2022/09/23 12:09:55;;;;;;;15.82;9.18;;;15.60;99.90;;;;;;5018754;28;20344;-71
2022/09/23 12:12:34;;;;;;;11.25;7.60;;;15.70;99.90;;;;;;5032737;28;20067;-71
2022/09/23 12:15:33;;;;;;;10.95;8.80;;;15.70;99.90;;;;;;5027809;28;20090;-71
2022/09/23 12:18:20;;;;;;;10.07;8.68;;;15.70;99.90;;;;;;5016623;28;20516;-71
2022/09/23 12:21:09;;;;;;;12.20;9.18;;;15.70;99.90;;;;;;5029344;28;20605;-71
2022/09/23 12:23:53;;;;;;;13.30;9.48;;;15.70;99.90;;;;;;5029668;28;20076;-71
2022/09/23 12:26:22;;;;;;;11.13;8.23;;;15.70;99.90;;;;;;5028800;28;20041;-71
2022/09/23 12:28:51;;;;;;;11.23;7.95;;;15.70;99.90;;;;;;5030316;28;20126;-71
2022/09/23 12:31:29;;;;;;;12.55;8.70;;;15.70;99.90;;;;;;5026294;28;20379;-71
2022/09/23 12:34:00;;;;;;;11.23;8.90;;;15.80;99.90;;;;;;5047798;28;20048;-71
2022/09/23 12:36:33;;;;;;;13.48;9.25;;;15.90;99.90;;;;;;5027324;28;20154;-72
2022/09/23 12:39:02;;;;;;;13.43;8.88;;;15.90;99.90;;;;;;5050608;28;20382;-70
2022/09/23 12:41:45;;;;;;;16.30;9.52;;;15.90;99.90;;;;;;5038262;28;20154;-73
2022/09/23 12:44:13;;;;;;;19.70;10.85;;;15.90;99.90;;;;;;5022826;28;20055;-73
2022/09/23 12:46:41;;;;;;;14.73;9.90;;;15.90;99.90;;;;;;5032640;28;20521;-73
2022/09/23 12:49:34;;;;;;;15.57;9.82;;;15.90;99.90;;;;;;5033284;28;20090;-73
2022/09/23 12:52:15;;;;;;;15.07;9.88;;;15.90;99.90;;;;;;5032537;28;20056;-73
2022/09/23 12:54:55;;;;;;;13.98;9.27;;;15.90;99.90;;;;;;5045826;28;20033;-73
2022/09/23 12:57:33;;;;;;;13.13;9.27;;;15.90;99.90;;;;;;5031657;28;20033;-73
2022/09/23 13:00:23;;;;;;;9.90;8.57;;;15.90;99.90;;;;;;5032562;28;20120;-73
2022/09/23 13:08:44;;;;;;;;;;;15.90;99.90;;;;;;5029696;28;20080;-73
2022/09/23 13:11:30;;;;;;;16.52;8.45;;;16.00;99.90;;;;;;5031888;28;19917;-73
2022/09/23 13:14:01;;;;;;;10.68;8.38;;;16.00;99.90;;;;;;5028646;28;20061;-73
2022/09/23 13:16:32;;;;;;;10.18;7.85;;;16.10;99.90;;;;;;5010260;28;20048;-73
2022/09/23 13:19:25;;;;;;;15.52;7.88;;;16.10;99.90;;;;;;5038990;28;20043;-73
2022/09/23 13:21:59;;;;;;;;;;;16.10;99.90;;;;;;5046205;28;20029;-73
2022/09/23 13:24:27;;;;;;;9.50;6.93;;;16.20;99.90;;;;;;5044281;28;20293;-73